METAR AND TAF INFORMATION
METAR FOR ENKR
ADDS - METARS form results

(1713 UTC 20 September 2020)
Data provider http://aviationweather.gov/metar/data/
 
METAR text: ENKR 201650Z 19008KT 9999 FEW022 SCT032 BKN042 04/03 Q0994 RMK WIND 731FT 21010KT
Conditions at: ENKR (KIRKENES (CIV/MI, NO) observed 1650 UTC 20 September 2020
Temperature: 4.0°C (39°F)
Dewpoint: 3.0°C (37°F) [RH = 93%]
Pressure (altimeter): 29.35 inches Hg (994.0 mb)
Winds: from the S (190 degrees) at 9 MPH (8 knots; 4.1 m/s)
Visibility: 6 or more miles (10+ km)
Ceiling: 4200 feet AGL
Clouds: few clouds at 2200 feet AGL
scattered clouds at 3200 feet AGL
broken clouds at 4200 feet AGL
Weather: no significant weather observed at this time

METAR text: ENKR 201620Z 19009KT 9999 SCT013 BKN032 04/03 Q0994 RMK WIND 731FT 21012KT
Conditions at: ENKR (KIRKENES (CIV/MI, NO) observed 1620 UTC 20 September 2020
Temperature: 4.0°C (39°F)
Dewpoint: 3.0°C (37°F) [RH = 93%]
Pressure (altimeter): 29.35 inches Hg (994.0 mb)
Winds: from the S (190 degrees) at 10 MPH (9 knots; 4.6 m/s)
Visibility: 6 or more miles (10+ km)
Ceiling: 3200 feet AGL
Clouds: scattered clouds at 1300 feet AGL
broken clouds at 3200 feet AGL
Weather: no significant weather observed at this time

Forecast for: ENKR (KIRKENES (CIV/MI, NO)
Text: TAF ENKR 201400Z 2015/2024 23010KT 9999 SCT030
Forecast period: 1500 UTC 20 September 2020 to 0000 UTC 21 September 2020
Forecast type: FROM: standard forecast or significant change
Winds: from the SW (230 degrees) at 12 MPH (10 knots; 5.1 m/s)
Visibility: 6 or more miles (10+ km)
Ceiling: at least 12,000 feet AGL
Clouds: scattered clouds at 3000 feet AGL
Weather: no significant weather forecast for this period
Text: PROB40 2015/2016 RA BKN008
Forecast period: 1500 to 1600 UTC 20 September 2020
Forecast type: PROBABLE: 40 percent likelihood of the following during this time
Visibility: missing
Ceiling: 800 feet AGL
Clouds: broken clouds at 800 feet AGL
Weather: RA  (moderate rain)

 AIRPORT MAP

 RUNWAY INFORMATION
Runway 06 Runway length 6939 ft Runway width 148 ft
Runway elevation 281 ft Runway displaced threshold 185 ft Runway heading 69
Runway 24 Runway length 6939 ft Runway width 148 ft
Runway elevation 280 ft Runway displaced threshold 1450 ft Runway heading 249

 AIRPORT FREQUENCIES
Type ATIS Name ATIS Frequency 118.025 MHZ
Type TWR Name KIRKENES T Frequency 118.1 MHZ

 AIRPORT NEAR NAVIGATION AIDS
Type VOR-DME Name Kirkenes Frequency 112000 KHZ
Type NDB Name Kirkenes Frequency 326 KHZ